• Join FlightAware (Why Join?)
  • Login
  • US Flag 
11:11PM EDT


 

Airport Tracker/Info


-or-


 

Live Flight TrackerFlight Track Log ✈ DAL2021 ✈ 25-Apr-2012 ✈ KDTW - KPHX

Flight Track Log - Related Links

Times and Time Zones

All times are in EDT time to prevent confusion due to time zone crossing. See the DAL2021 flight status page for this flight to view local times or setup timezone preferences in your user account.

Time Position Orientation Groundspeed Altitude Reporting Facility
EDT Latitude Longitude Course Direction KTS MPH feet Rate Location/Type
04:02PM 42.2053 -83.3536 231° Southwest 150 173 1,400  Level FAA TRACON SMA TRACON (SMA)
04:03PM 42.1825 -83.3922 231° Southwest 208 239 2,400 2,460 Climbing FAA TRACON SMA TRACON (SMA)
04:04PM 42.1564 -83.4356 259° West 218 251 4,700 2,880 Climbing FAA TRACON SMA TRACON (SMA)
04:04PM 42.1486 -83.4875 296° West 244 281 6,300 2,760 Climbing FAA TRACON SMA TRACON (SMA)
04:05PM 42.1703 -83.5464 295° West 258 297 8,400 2,700 Climbing FAA TRACON SMA TRACON (SMA)
04:06PM 42.1900 -83.6042 298° West 266 306 9,900 1,260 Climbing FAA TRACON SMA TRACON (SMA)
04:06PM 42.2144 -83.6669 299° West 316 364 10,100 1,500 Climbing FAA TRACON SMA TRACON (SMA)
04:07PM 42.2450 -83.7417 299° West 335 386 11,900 2,580 Climbing FAA TRACON SMA TRACON (SMA)
04:08PM 42.2750 -83.8147 299° West 342 394 13,700 2,580 Climbing FAA TRACON SMA TRACON (SMA)
04:08PM 42.3067 -83.8933 299° West 347 399 15,400 2,760 Climbing FAA TRACON SMA TRACON (SMA)
04:09PM 42.3383 -83.9719 298° West 353 406 17,400 3,600 Climbing FAA TRACON SMA TRACON (SMA)
04:10PM 42.3667 -84.0428 298° West 331 381 20,200 3,780 Climbing FAA TRACON SMA TRACON (SMA)
04:10PM 42.3933 -84.1094 298° West 289 333 22,500 2,040 Climbing FAA TRACON SMA TRACON (SMA)
04:11PM 42.4200 -84.1772 279° West 304 350 23,000 960 Climbing FAA TRACON SMA TRACON (SMA)
04:12PM 42.4292 -84.2528 272° West 322 371 23,800 1,620 Climbing FAA TRACON SMA TRACON (SMA)
04:13PM 42.4314 -84.3617 273° West 316 364 25,400 1,800 Climbing Cleveland Center
04:14PM 42.4356 -84.4911 272° West 335 386 27,100 1,560 Climbing Cleveland Center
04:15PM 42.4394 -84.6181 272° West 347 399 28,600 1,380 Climbing Cleveland Center
04:15PM 42.4411 -84.6786 270° West 348 400 29,300 1,440 Climbing Chicago Center
04:16PM 42.4403 -84.8167 274° West 362 417 30,900 1,320 Climbing Chicago Center
04:17PM 42.4475 -84.9483 272° West 362 417 32,000 600 Climbing Chicago Center
04:18PM 42.4506 -85.0861 271° West 367 422 32,100 660 Climbing Chicago Center
04:19PM 42.4525 -85.2492 272° West 378 435 33,400 1,380 Climbing Chicago Center
04:20PM 42.4553 -85.3928 272° West 383 441 34,900 1,380 Climbing Chicago Center
04:21PM 42.4581 -85.5333 270° West 383 441 36,200 1,200 Climbing Chicago Center
04:22PM 42.4583 -85.6711 271° West 383 441 37,400 780 Climbing Chicago Center
04:23PM 42.4606 -85.8092 271° West 383 441 37,800 300 Climbing Chicago Center
04:24PM 42.4625 -85.9383 271° West 383 441 38,000 60 Climbing Chicago Center
04:25PM 42.4644 -86.0819 263° West 383 441 38,000  Level Chicago Center
04:26PM 42.4519 -86.2261 259° West 383 441 38,000  Level Chicago Center
04:27PM 42.4325 -86.3650 262° West 389 448 38,000  Level Chicago Center
04:28PM 42.4175 -86.5119 260° West 389 448 38,000  Level Chicago Center
04:29PM 42.3983 -86.6619 259° West 389 448 38,000  Level Chicago Center
04:30PM 42.3803 -86.7864 260° West 389 448 38,000  Level Chicago Center
04:31PM 42.3625 -86.9275 260° West 389 448 38,000  Level Chicago Center
04:32PM 42.3444 -87.0686 260° West 384 442 38,000  Level Chicago Center
04:33PM 42.3264 -87.2097 259° West 384 442 38,000  Level Chicago Center
04:34PM 42.3061 -87.3508 260° West 389 448 38,000  Level Chicago Center
04:35PM 42.2856 -87.5058 259° West 394 453 38,000  Level Chicago Center
04:36PM 42.2650 -87.6467 260° West 394 453 38,000  Level Chicago Center
04:37PM 42.2461 -87.7875 259° West 377 434 38,000  Level Chicago Center
04:38PM 42.2250 -87.9311 250° West 388 447 38,000  Level Chicago Center
04:39PM 42.1892 -88.0664 249° West 393 452 38,000  Level Chicago Center
04:40PM 42.1489 -88.2072 250° West 399 459 38,000  Level Chicago Center
04:41PM 42.1125 -88.3422 248° West 399 459 38,000  Level Chicago Center
04:42PM 42.0700 -88.4828 249° West 399 459 38,000  Level Chicago Center
04:43PM 42.0314 -88.6203 249° West 399 459 38,000  Level Chicago Center
04:44PM 41.9925 -88.7547 249° West 394 453 38,000  Level Chicago Center
04:45PM 41.9536 -88.8892 248° West 394 453 38,000  Level Chicago Center
04:46PM 41.9122 -89.0233 248° West 394 453 38,000  Level Chicago Center
04:47PM 41.8731 -89.1547 248° West 394 453 38,000  Level Chicago Center
04:48PM 41.8356 -89.2775 248° West 394 453 38,000  Level Chicago Center
04:49PM 41.7939 -89.4139 250° West 394 453 38,000  Level Chicago Center
04:50PM 41.7564 -89.5503 247° West 394 453 38,000  Level Chicago Center
04:51PM 41.7142 -89.6836 250° West 388 447 38,000  Level Chicago Center
04:52PM 41.6764 -89.8197 247° West 388 447 38,000  Level Chicago Center
04:53PM 41.6339 -89.9528 247° West 393 452 38,000  Level Chicago Center
04:54PM 41.5914 -90.0883 248° West 393 452 38,000  Level Chicago Center
04:55PM 41.5508 -90.2211 247° West 393 452 38,000  Level Chicago Center
04:56PM 41.5081 -90.3564 248° West 393 452 38,000  Level Chicago Center
04:57PM 41.4672 -90.4889 247° West 393 452 38,000  Level Chicago Center
04:58PM 41.4242 -90.6264 249° West 393 452 38,000  Level Chicago Center
04:59PM 41.3850 -90.7614 246° West 393 452 38,000  Level Chicago Center
05:00PM 41.3394 -90.8986 247° West 393 452 38,000  Level Chicago Center
05:01PM 41.2958 -91.0358 247° West 393 452 38,000  Level Chicago Center
05:02PM 41.2519 -91.1728 246° West 393 452 38,000  Level Chicago Center
05:03PM 41.2081 -91.3067 247° West 393 452 38,000  Level Chicago Center
05:04PM 41.1639 -91.4461 247° West 398 458 38,000  Level Chicago Center
05:05PM 41.1219 -91.5772 245° Southwest 398 458 38,000  Level Chicago Center
05:06PM 41.0733 -91.7131 247° West 398 458 38,000  Level Chicago Center
05:07PM 41.0286 -91.8492 248° West 398 458 38,000  Level Chicago Center
05:08PM 40.9861 -91.9853 246° West 398 458 38,000  Level Chicago Center
05:09PM 40.9411 -92.1181 246° West 404 465 38,000  Level Chicago Center
05:10PM 40.8961 -92.2508 246° West 404 465 38,000  Level Chicago Center
05:11PM 40.8511 -92.3861 246° West 404 465 38,000  Level Chicago Center
05:12PM 40.8011 -92.5347 246° West 404 465 38,000  Level Chicago Center
05:15PM 40.6906 -92.8647 245° Southwest 391 450 38,000  Level Kansas City Center
05:16PM 40.6483 -92.9861 246° West 404 465 38,000  Level Kansas City Center
05:17PM 40.6022 -93.1208 245° Southwest 404 465 38,000  Level Kansas City Center
05:18PM 40.5536 -93.2583 246° West 404 465 38,000  Level Kansas City Center
05:19PM 40.5092 -93.3900 244° Southwest 404 465 38,000  Level Kansas City Center
05:20PM 40.4603 -93.5244 247° West 404 465 38,000  Level Kansas City Center
05:21PM 40.4175 -93.6586 244° Southwest 404 465 38,000  Level Kansas City Center
05:22PM 40.3664 -93.7953 246° West 404 465 38,000  Level Kansas City Center
05:23PM 40.3214 -93.9292 244° Southwest 404 465 38,000  Level Kansas City Center
05:24PM 40.2697 -94.0656 245° Southwest 410 472 38,000  Level Kansas City Center
05:25PM 40.2181 -94.2097 246° West 403 464 38,000  Level Kansas City Center
05:26PM 40.1767 -94.3294 246° West 403 464 38,000  Level Kansas City Center
05:27PM 40.1311 -94.4653 242° Southwest 403 464 38,000  Level Kansas City Center
05:28PM 40.0747 -94.6036 245° Southwest 409 471 38,000  Level Kansas City Center
05:29PM 40.0267 -94.7389 247° West 403 464 38,000  Level Kansas City Center
05:30PM 39.9867 -94.8606 242° Southwest 403 464 38,000  Level Kansas City Center
05:31PM 39.9300 -95.0011 245° Southwest 402 463 38,000  Level Kansas City Center
05:32PM 39.8836 -95.1333 244° Southwest 402 463 38,000  Level Kansas City Center
05:33PM 39.8350 -95.2653 244° Southwest 402 463 38,000  Level Kansas City Center
05:34PM 39.7903 -95.3864 245° Southwest 408 470 38,000  Level Kansas City Center
05:35PM 39.7372 -95.5314 245° Southwest 408 470 38,000  Level Kansas City Center
05:36PM 39.6881 -95.6656 244° Southwest 408 470 38,000  Level Kansas City Center
05:37PM 39.6431 -95.7833 243° Southwest 408 470 38,000  Level Kansas City Center
05:38PM 39.5914 -95.9172 244° Southwest 408 470 38,000  Level Kansas City Center
05:39PM 39.5356 -96.0642 244° Southwest 417 480 38,000  Level Kansas City Center
05:40PM 39.4858 -96.1947 243° Southwest 417 480 38,000  Level Kansas City Center
05:41PM 39.4339 -96.3253 244° Southwest 417 480 38,000  Level Kansas City Center
05:42PM 39.3883 -96.4450 244° Southwest 417 480 38,000  Level Kansas City Center
05:43PM 39.3381 -96.5778 244° Southwest 417 480 38,000  Level Kansas City Center
05:44PM 39.2833 -96.7236 243° Southwest 417 480 38,000  Level Kansas City Center
05:45PM 39.2353 -96.8456 244° Southwest 422 486 38,000  Level Kansas City Center
05:46PM 39.1822 -96.9883 241° Southwest 410 472 38,000  Level Kansas City Center
05:47PM 39.1275 -97.1150 244° Southwest 400 460 38,000  Level Kansas City Center
05:48PM 39.0789 -97.2417 243° Southwest 400 460 38,000  Level Kansas City Center
05:49PM 39.0278 -97.3706 243° Southwest 405 466 38,000  Level Kansas City Center
05:50PM 38.9789 -97.4914 243° Southwest 410 472 38,000  Level Kansas City Center
05:51PM 38.9278 -97.6228 248° West 415 478 38,000  Level Kansas City Center
05:52PM 38.8822 -97.7675 248° West 415 478 38,000  Level Kansas City Center
05:53PM 38.8433 -97.8911 249° West 408 470 38,000  Level Kansas City Center
05:54PM 38.8039 -98.0253 248° West 408 470 38,000  Level Kansas City Center
05:55PM 38.7625 -98.1564 248° West 408 470 38,000  Level Kansas City Center
05:56PM 38.7208 -98.2872 248° West 408 470 38,000  Level Kansas City Center
05:57PM 38.6792 -98.4183 247° West 403 464 38,000  Level Kansas City Center
05:58PM 38.6375 -98.5461 250° West 403 464 38,000  Level Kansas City Center
05:59PM 38.5994 -98.6769 247° West 403 464 38,000  Level Kansas City Center
06:00PM 38.5575 -98.8019 249° West 392 451 38,000  Level Kansas City Center
06:01PM 38.5197 -98.9247 247° West 392 451 38,000  Level Kansas City Center
06:02PM 38.4775 -99.0494 248° West 386 444 38,000  Level Kansas City Center
06:03PM 38.4372 -99.1742 248° West 386 444 38,000  Level Kansas City Center
06:04PM 38.3967 -99.3014 247° West 391 450 38,000  Level Kansas City Center
06:05PM 38.3542 -99.4286 247° West 391 450 38,000  Level Kansas City Center
06:06PM 38.3108 -99.5606 248° West 383 441 38,000  Level Kansas City Center
06:07PM 38.2700 -99.6875 247° West 383 441 38,000  Level Kansas City Center
06:08PM 38.2292 -99.8114 248° West 388 447 38,000  Level Kansas City Center
06:09PM 38.1928 -99.9253 246° West 388 447 38,000  Level Kansas City Center
06:10PM 38.1447 -100.0617 247° West 388 447 38,000  Level Kansas City Center
06:11PM 38.1033 -100.1878 247° West 388 447 38,000  Level Kansas City Center
06:12PM 38.0644 -100.3036 247° West 388 447 38,000  Level Kansas City Center
06:13PM 38.0228 -100.4269 247° West 388 447 38,000  Level Kansas City Center
06:14PM 37.9764 -100.5656 246° West 388 447 38,000  Level Kansas City Center
06:15PM 37.9322 -100.6911 249° West 388 447 38,000  Level Kansas City Center
06:16PM 37.8972 -100.8042 248° West 388 447 38,000  Level Kansas City Center
06:17PM 37.8522 -100.9450 247° West 388 447 38,000  Level Kansas City Center
06:18PM 37.8097 -101.0728 247° West 394 453 38,000 180 Level Kansas City Center
06:19PM 37.7722 -101.1850 247° West 394 453 38,400 660 Climbing Kansas City Center
06:20PM 37.7269 -101.3203 248° West 383 441 39,400 780 Climbing Kansas City Center
06:21PM 37.6864 -101.4453 247° West 383 441 40,000 300 Climbing Kansas City Center
06:22PM 37.6483 -101.5597 247° West 383 441 40,000  Level Kansas City Center
06:23PM 37.5781 -101.7694 246° West 403 464 40,000  Level Albuquerque Center
06:24PM 37.5394 -101.8797 248° West 397 457 40,000  Level Albuquerque Center
06:25PM 37.4936 -102.0192 247° West 392 451 40,000  Level Albuquerque Center
06:26PM 37.4511 -102.1450 247° West 384 442 40,000  Level Albuquerque Center
06:27PM 37.4106 -102.2681 246° West 384 442 40,000  Level Albuquerque Center
06:28PM 37.3714 -102.3806 249° West 389 448 40,000  Level Albuquerque Center
06:29PM 37.3328 -102.5058 246° West 384 442 40,000  Level Albuquerque Center
06:30PM 37.2839 -102.6447 247° West 384 442 40,000  Level Albuquerque Center
06:31PM 37.2408 -102.7700 248° West 384 442 40,000  Level Albuquerque Center
06:32PM 37.1997 -102.8950 246° West 384 442 40,000  Level Albuquerque Center
06:33PM 37.1600 -103.0094 246° West 389 448 40,000  Level Albuquerque Center
06:34PM 37.1108 -103.1475 246° West 389 448 40,000  Level Albuquerque Center
06:35PM 37.0653 -103.2750 246° West 394 453 40,000  Level Albuquerque Center
06:36PM 37.0214 -103.3994 247° West 394 453 40,000  Level Albuquerque Center
06:37PM 36.9833 -103.5133 246° West 394 453 40,000  Level Albuquerque Center
06:38PM 36.9333 -103.6508 246° West 399 459 40,000  Level Albuquerque Center
06:39PM 36.8892 -103.7775 246° West 399 459 40,000  Level Albuquerque Center
06:40PM 36.8450 -103.9017 245° Southwest 399 459 40,000  Level Albuquerque Center
06:41PM 36.8042 -104.0125 246° West 399 459 40,000  Level Albuquerque Center
06:42PM 36.7597 -104.1389 245° Southwest 399 459 40,000  Level Albuquerque Center
06:43PM 36.7092 -104.2756 246° West 399 459 40,000  Level Albuquerque Center
06:44PM 36.6742 -104.3753 246° West 399 459 40,000  Level Albuquerque Center
06:45PM 36.6253 -104.5119 245° Southwest 399 459 40,000  Level Albuquerque Center
06:46PM 36.5800 -104.6325 247° West 399 459 40,000  Level Albuquerque Center
06:47PM 36.5331 -104.7686 244° Southwest 394 453 40,000  Level Albuquerque Center
06:48PM 36.4856 -104.8917 249° West 394 453 40,000  Level Albuquerque Center
06:49PM 36.4503 -105.0036 247° West 389 448 40,000  Level Albuquerque Center
06:50PM 36.4047 -105.1367 247° West 389 448 40,000  Level Albuquerque Center
06:51PM 36.3611 -105.2644 247° West 389 448 40,000  Level Albuquerque Center
06:52PM 36.3175 -105.3892 248° West 395 455 40,000  Level Albuquerque Center
06:53PM 36.2756 -105.5164 248° West 400 460 40,000  Level Albuquerque Center
06:54PM 36.2336 -105.6436 246° West 394 453 40,000  Level Albuquerque Center
06:55PM 36.1875 -105.7733 248° West 406 467 40,000  Level Albuquerque Center
06:56PM 36.1453 -105.9028 247° West 406 467 40,000  Level Albuquerque Center
06:57PM 36.1008 -106.0294 247° West 410 472 40,000  Level Albuquerque Center
06:58PM 36.0564 -106.1561 247° West 410 472 40,000  Level Albuquerque Center
06:59PM 36.0136 -106.2828 246° West 399 459 40,000  Level Albuquerque Center
07:00PM 35.9708 -106.4039 246° West 399 459 40,000  Level Albuquerque Center
07:01PM 35.9281 -106.5250 247° West 399 459 40,000  Level Albuquerque Center
07:02PM 35.8850 -106.6486 245° Southwest 394 453 40,000  Level Albuquerque Center
07:03PM 35.8397 -106.7692 247° West 394 453 40,000  Level Albuquerque Center
07:04PM 35.7986 -106.8875 247° West 394 453 40,000  Level Albuquerque Center
07:05PM 35.7614 -106.9978 245° Southwest 389 448 40,000  Level Albuquerque Center
07:06PM 35.7136 -107.1258 246° West 384 442 40,000  Level Albuquerque Center
07:07PM 35.6719 -107.2436 246° West 379 436 40,000  Level Albuquerque Center
07:08PM 35.6303 -107.3586 246° West 379 436 40,000  Level Albuquerque Center
07:09PM 35.5928 -107.4633 247° West 379 436 40,000  Level Albuquerque Center
07:10PM 35.5467 -107.5936 246° West 379 436 40,000  Level Albuquerque Center
07:11PM 35.5047 -107.7083 246° West 379 436 40,000  Level Albuquerque Center
07:12PM 35.4625 -107.8253 245° Southwest 379 436 40,000  Level Albuquerque Center
07:13PM 35.4225 -107.9322 246° West 379 436 40,000  Level Albuquerque Center
07:14PM 35.3781 -108.0567 245° Southwest 380 437 40,000  Level Albuquerque Center
07:15PM 35.3333 -108.1733 245° Southwest 380 437 40,000  Level Albuquerque Center
07:16PM 35.2886 -108.2900 246° West 380 437 40,000  Level Albuquerque Center
07:17PM 35.2503 -108.3964 245° Southwest 380 437 40,000  Level Albuquerque Center
07:18PM 35.2011 -108.5281 245° Southwest 380 437 40,000  Level Albuquerque Center
07:19PM 35.1561 -108.6442 247° West 380 437 40,000  Level Albuquerque Center
07:20PM 35.1131 -108.7653 245° Southwest 380 437 40,000 -300 Level Albuquerque Center
07:21PM 35.0742 -108.8686 245° Southwest 385 443 39,500 -1,020 Descending Albuquerque Center
07:22PM 35.0222 -109.0047 245° Southwest 385 443 38,000 -1,260 Descending Albuquerque Center
07:23PM 34.9747 -109.1281 245° Southwest 397 457 37,000 -1,020 Descending Albuquerque Center
07:24PM 34.9269 -109.2511 246° West 397 457 36,000 -540 Descending Albuquerque Center
07:25PM 34.8831 -109.3717 247° West 413 475 36,000  Level Albuquerque Center
07:26PM 34.8328 -109.5144 246° West 421 484 36,000  Level Albuquerque Center
07:27PM 34.7867 -109.6397 246° West 416 479 36,000  Level Albuquerque Center
07:28PM 34.7403 -109.7647 247° West 416 479 36,000  Level Albuquerque Center
07:29PM 34.7003 -109.8775 245° Southwest 416 479 36,000  Level Albuquerque Center
07:30PM 34.6472 -110.0144 246° West 411 473 36,000  Level Albuquerque Center
07:31PM 34.6008 -110.1392 245° Southwest 416 479 36,000  Level Albuquerque Center
07:32PM 34.5539 -110.2636 245° Southwest 416 479 36,000 -1,020 Level Albuquerque Center
07:33PM 34.5114 -110.3756 248° West 411 473 34,000 -2,400 Descending Albuquerque Center
07:34PM 34.4664 -110.5075 245° Southwest 421 484 31,300 -2,580 Descending Albuquerque Center
07:35PM 34.4192 -110.6317 246° West 421 484 28,900 -2,400 Descending Albuquerque Center
07:36PM 34.3697 -110.7656 233° Southwest 410 472 26,500 -2,400 Descending Albuquerque Center
07:37PM 34.3061 -110.8683 225° Southwest 393 452 24,100 -2,400 Descending Albuquerque Center
07:38PM 34.2325 -110.9583 227° Southwest 388 447 21,800 -2,100 Descending Albuquerque Center
07:39PM 34.1783 -111.0286 227° Southwest 377 434 20,000 -1,680 Descending Albuquerque Center
07:40PM 34.1022 -111.1256 227° Southwest 347 399 18,500 -1,740 Descending Albuquerque Center
07:41PM 34.0433 -111.2006 227° Southwest 322 371 16,600 -1,740 Descending Albuquerque Center
07:42PM 33.9889 -111.2708 227° Southwest 317 365 15,100 -1,740 Descending Albuquerque Center
07:43PM 33.9300 -111.3481 222° Southwest 317 365 13,200 -1,680 Descending Albuquerque Center
07:44PM 33.8667 -111.4167 212° Southwest 303 349 12,000 -1,320 Descending Phoenix TRACON
07:45PM 33.8000 -111.4667 220° Southwest 291 335 10,700 -1,080 Descending Phoenix TRACON
07:46PM 33.7333 -111.5333 212° Southwest 291 335 9,900 -780 Descending Phoenix TRACON
07:47PM 33.6667 -111.5833 220° Southwest 270 311 9,200 -900 Descending Phoenix TRACON
07:48PM 33.6167 -111.6333 220° Southwest 251 289 8,200 -1,140 Descending Phoenix TRACON
07:49PM 33.5667 -111.6833 220° Southwest 245 282 7,000 -1,260 Descending Phoenix TRACON
07:50PM 33.5167 -111.7333 239° Southwest 226 260 5,700 -1,200 Descending Phoenix TRACON
07:51PM 33.4833 -111.8000 231° Southwest 222 255 4,600 -1,200 Descending Phoenix TRACON
07:52PM 33.4500 -111.8500 248° West 184 212 3,400 -1,020 Descending Phoenix TRACON
07:53PM 33.4333 -111.9000 270° West 167 192 2,600 -780 Descending Phoenix TRACON
07:54PM 33.4333 -111.9500 270° West 138 159 1,900 -720 Descending Phoenix TRACON